Time;durP1;ratioP1;P1;durP2;ratioP2;P2;SDS_P1;SDS_P2;PMS_P1;PMS_P2;Temp;Humidity;BMP_temperature;BMP_pressure;BME280_temperature;BME280_humidity;BME280_pressure;Samples;Min_cycle;Max_cycle;Signal;HPM_P1;HPM_P2
2023/04/22 00:01:00;;;;;;;1.05;0.90;;;12.40;99.90;;;;;;5093496;28;20046;-76
2023/04/22 00:03:26;;;;;;;0.90;0.90;;;12.30;99.90;;;;;;5092095;28;20040;-76
2023/04/22 00:05:52;;;;;;;0.88;0.88;;;12.30;99.90;;;;;;5126441;28;20040;-76
2023/04/22 00:08:17;;;;;;;1.17;1.08;;;12.30;99.90;;;;;;5092028;28;20484;-76
2023/04/22 00:10:43;;;;;;;0.80;0.80;;;12.20;99.90;;;;;;5092378;28;20067;-76
2023/04/22 00:13:09;;;;;;;0.90;0.90;;;12.10;99.90;;;;;;5128707;27;20044;-76
2023/04/22 00:15:34;;;;;;;1.45;1.35;;;12.00;99.90;;;;;;5130559;27;20036;-75
2023/04/22 00:18:00;;;;;;;0.90;0.90;;;12.00;99.90;;;;;;5096394;28;20044;-76
2023/04/22 00:20:25;;;;;;;1.00;1.00;;;11.90;99.90;;;;;;5079138;28;20484;-75
2023/04/22 00:22:51;;;;;;;1.20;1.13;;;11.80;99.90;;;;;;5096289;28;20071;-75
2023/04/22 00:25:17;;;;;;;1.00;1.00;;;11.80;99.90;;;;;;5097500;28;20499;-75
2023/04/22 00:27:44;;;;;;;0.65;0.65;;;11.60;99.90;;;;;;5097522;28;20036;-76
2023/04/22 00:30:10;;;;;;;0.90;0.90;;;11.50;99.90;;;;;;5097492;28;20122;-75
2023/04/22 00:32:36;;;;;;;0.80;0.80;;;11.50;99.90;;;;;;5097419;28;20032;-76
2023/04/22 00:35:02;;;;;;;1.13;1.08;;;11.60;99.90;;;;;;5097146;28;20119;-76
2023/04/22 00:37:28;;;;;;;0.85;0.85;;;11.50;99.90;;;;;;5095732;28;20086;-75
2023/04/22 00:39:54;;;;;;;16.77;3.42;;;11.50;99.90;;;;;;5096891;28;20048;-75
2023/04/22 00:42:20;;;;;;;33.72;9.00;;;11.30;99.90;;;;;;5097223;28;20098;-75
2023/04/22 00:44:47;;;;;;;7.50;2.88;;;11.30;99.90;;;;;;5129913;27;20032;-75
2023/04/22 00:47:12;;;;;;;0.80;0.80;;;11.30;99.90;;;;;;5095712;28;20087;-75
2023/04/22 00:49:38;;;;;;;0.80;0.80;;;11.30;99.90;;;;;;5095648;28;20072;-75
2023/04/22 00:52:04;;;;;;;0.95;0.95;;;11.30;99.90;;;;;;5095838;28;20051;-75
2023/04/22 00:54:30;;;;;;;0.90;0.90;;;11.20;99.90;;;;;;5095806;28;20506;-75
2023/04/22 00:56:57;;;;;;;0.80;0.80;;;11.20;99.90;;;;;;5097127;28;20051;-75
2023/04/22 00:59:24;;;;;;;0.90;0.90;;;11.30;99.90;;;;;;5096994;28;20044;-76
2023/04/22 01:01:50;;;;;;;1.10;1.00;;;11.20;99.90;;;;;;5096971;28;20036;-75
2023/04/22 01:04:16;;;;;;;1.10;1.10;;;11.20;99.90;;;;;;5096890;28;20047;-76
2023/04/22 01:06:43;;;;;;;0.85;0.85;;;11.10;99.90;;;;;;5096786;28;20036;-75
2023/04/22 01:09:09;;;;;;;1.40;1.08;;;11.10;99.90;;;;;;5096772;28;20036;-76
2023/04/22 01:11:35;;;;;;;0.80;0.80;;;11.00;99.90;;;;;;5095202;28;20118;-76
2023/04/22 01:14:02;;;;;;;18.50;5.38;;;10.90;99.90;;;;;;5095121;28;20043;-75
2023/04/22 01:16:30;;;;;;;6.55;2.75;;;11.00;99.90;;;;;;5096754;28;20486;-76
2023/04/22 01:18:55;;;;;;;0.90;0.90;;;10.70;99.90;;;;;;5096582;28;20040;-76
2023/04/22 01:21:23;;;;;;;10.27;3.25;;;10.70;99.90;;;;;;5096540;28;20085;-75
2023/04/22 01:23:49;;;;;;;11.57;3.78;;;10.70;99.90;;;;;;5095278;28;20044;-75
2023/04/22 01:26:15;;;;;;;0.88;0.88;;;10.50;99.90;;;;;;5077890;28;20044;-75
2023/04/22 01:28:41;;;;;;;0.98;0.98;;;10.50;99.90;;;;;;5078169;28;20365;-75
2023/04/22 01:31:06;;;;;;;1.02;1.00;;;10.40;99.90;;;;;;5094832;28;20540;-75
2023/04/22 01:33:33;;;;;;;1.13;1.13;;;10.50;99.90;;;;;;5094732;28;20062;-75
2023/04/22 01:35:59;;;;;;;1.20;1.10;;;10.50;99.90;;;;;;5096222;28;20040;-75
2023/04/22 01:38:24;;;;;;;1.20;1.10;;;10.50;99.90;;;;;;5094748;28;20040;-75
2023/04/22 01:40:50;;;;;;;1.42;1.20;;;10.60;99.90;;;;;;5094914;28;20047;-75
2023/04/22 01:43:16;;;;;;;1.20;1.10;;;10.70;99.90;;;;;;5096052;28;20055;-75
2023/04/22 01:45:41;;;;;;;1.08;1.08;;;10.60;99.90;;;;;;5096037;28;20115;-75
2023/04/22 01:48:07;;;;;;;1.10;1.10;;;10.70;99.90;;;;;;5095967;28;20055;-75
2023/04/22 01:50:32;;;;;;;1.08;1.08;;;10.70;99.90;;;;;;5095931;28;20477;-75
2023/04/22 01:52:59;;;;;;;1.02;1.02;;;10.60;99.90;;;;;;5095935;28;20499;-75
2023/04/22 01:55:24;;;;;;;1.10;1.10;;;10.60;99.90;;;;;;5094253;28;20036;-75
2023/04/22 01:57:51;;;;;;;1.02;1.02;;;10.50;99.90;;;;;;5094196;28;20042;-75
2023/04/22 02:00:17;;;;;;;1.10;1.10;;;10.40;99.90;;;;;;5095355;28;20546;-75
2023/04/22 02:02:42;;;;;;;1.00;1.00;;;10.30;99.90;;;;;;5095655;28;20036;-75
2023/04/22 02:05:08;;;;;;;1.17;1.17;;;10.30;99.90;;;;;;5128643;27;20123;-76
2023/04/22 02:07:37;;;;;;;1.20;1.10;;;10.30;99.90;;;;;;5094312;28;20040;-76
2023/04/22 02:10:04;;;;;;;1.20;1.10;;;10.20;99.90;;;;;;5094218;28;20032;-75
2023/04/22 02:12:31;;;;;;;1.00;1.00;;;10.20;99.90;;;;;;5093914;28;20091;-75
2023/04/22 02:14:57;;;;;;;1.10;1.10;;;10.30;99.90;;;;;;5093858;28;20036;-75
2023/04/22 02:17:22;;;;;;;1.02;0.80;;;10.30;99.90;;;;;;5093834;28;20084;-75
2023/04/22 02:19:48;;;;;;;1.17;1.17;;;10.30;99.90;;;;;;5093954;28;20122;-75
2023/04/22 02:22:14;;;;;;;1.10;1.10;;;10.40;99.90;;;;;;5093823;28;20044;-75
2023/04/22 02:24:39;;;;;;;1.20;1.20;;;10.40;99.90;;;;;;5095005;28;20029;-75
2023/04/22 02:27:07;;;;;;;1.20;1.20;;;10.40;99.90;;;;;;5095253;28;20442;-75
2023/04/22 02:29:33;;;;;;;1.15;1.10;;;10.40;99.90;;;;;;5094890;28;20093;-76
2023/04/22 02:31:59;;;;;;;1.02;1.00;;;10.40;99.90;;;;;;5094865;28;20337;-76
2023/04/22 02:34:25;;;;;;;1.20;1.20;;;10.40;99.90;;;;;;5094745;28;20545;-75
2023/04/22 02:36:51;;;;;;;1.15;1.13;;;10.50;99.90;;;;;;5094479;28;20085;-76
2023/04/22 02:39:16;;;;;;;0.98;0.98;;;10.50;99.90;;;;;;5094597;28;20048;-75
2023/04/22 02:41:42;;;;;;;1.15;1.15;;;10.40;99.90;;;;;;5094881;28;20035;-75
2023/04/22 02:44:08;;;;;;;1.48;1.25;;;10.30;99.90;;;;;;5093265;28;20374;-75
2023/04/22 02:46:33;;;;;;;1.30;1.20;;;10.40;99.90;;;;;;5093323;28;20120;-75
2023/04/22 02:48:59;;;;;;;1.10;1.10;;;10.40;99.90;;;;;;5093529;28;20047;-75
2023/04/22 02:51:26;;;;;;;1.23;1.13;;;10.40;99.90;;;;;;5093292;28;20047;-75
2023/04/22 02:53:52;;;;;;;1.02;1.02;;;10.40;99.90;;;;;;5093259;28;20081;-76
2023/04/22 02:56:20;;;;;;;1.10;1.10;;;10.40;99.90;;;;;;5127305;27;20122;-76
2023/04/22 02:58:45;;;;;;;1.02;1.02;;;10.40;99.90;;;;;;5127259;27;20036;-75
2023/04/22 03:01:11;;;;;;;1.05;0.95;;;10.30;99.90;;;;;;5094803;28;20040;-75
2023/04/22 03:03:37;;;;;;;1.10;1.10;;;10.20;99.90;;;;;;5094520;28;20051;-76
2023/04/22 03:06:02;;;;;;;1.10;1.10;;;10.20;99.90;;;;;;5127066;27;20028;-75
2023/04/22 03:08:28;;;;;;;1.10;1.10;;;10.20;99.90;;;;;;5092882;28;20048;-75
2023/04/22 03:10:53;;;;;;;1.20;1.20;;;10.10;99.90;;;;;;5094415;28;20442;-75
2023/04/22 03:13:19;;;;;;;2.60;1.35;;;10.10;99.90;;;;;;5094031;28;20119;-75
2023/04/22 03:15:45;;;;;;;2.17;1.17;;;10.00;99.90;;;;;;5094310;28;20039;-75
2023/04/22 03:18:10;;;;;;;1.92;1.13;;;9.80;99.90;;;;;;5094211;28;20067;-75
2023/04/22 03:20:37;;;;;;;4.10;1.45;;;9.80;99.90;;;;;;5075778;28;20043;-75
2023/04/22 03:23:03;;;;;;;2.05;1.10;;;9.70;99.90;;;;;;5092581;28;20036;-75
2023/04/22 03:25:29;;;;;;;20.65;3.15;;;9.50;99.90;;;;;;5093817;28;20434;-75
2023/04/22 03:27:54;;;;;;;70.65;8.48;;;9.40;99.90;;;;;;5093691;28;20032;-75
2023/04/22 03:30:20;;;;;;;1.30;1.20;;;9.20;99.90;;;;;;5126523;27;20089;-75
2023/04/22 03:32:45;;;;;;;0.93;0.93;;;9.10;99.90;;;;;;5092465;28;20048;-76
2023/04/22 03:35:11;;;;;;;7.03;2.03;;;9.10;99.90;;;;;;5093975;28;20089;-75
2023/04/22 03:37:37;;;;;;;0.80;0.80;;;9.10;99.90;;;;;;5094067;28;20468;-75
2023/04/22 03:40:04;;;;;;;10.20;1.67;;;9.10;99.90;;;;;;5093472;28;20092;-75
2023/04/22 03:42:30;;;;;;;54.55;5.10;;;9.00;99.90;;;;;;5093956;28;20078;-75
2023/04/22 03:44:56;;;;;;;16.42;2.00;;;9.00;99.90;;;;;;5092341;28;20087;-75
2023/04/22 03:47:21;;;;;;;38.05;3.78;;;9.00;99.90;;;;;;5093175;28;20050;-75
2023/04/22 03:49:47;;;;;;;47.03;4.50;;;8.80;99.90;;;;;;5093788;28;20514;-75
2023/04/22 03:52:12;;;;;;;0.57;0.57;;;8.70;99.90;;;;;;5092259;28;20044;-75
2023/04/22 03:54:38;;;;;;;265.85;16.10;;;8.70;99.90;;;;;;5092135;28;20071;-75
2023/04/22 03:57:04;;;;;;;188.75;14.35;;;8.50;99.90;;;;;;5092138;28;20145;-75
2023/04/22 03:59:29;;;;;;;75.00;6.68;;;8.30;99.90;;;;;;5093584;28;20128;-75
2023/04/22 04:01:55;;;;;;;2.80;1.10;;;8.30;99.90;;;;;;5093620;28;20046;-75
2023/04/22 04:04:22;;;;;;;0.80;0.80;;;8.30;99.90;;;;;;5093311;28;20449;-75
2023/04/22 04:06:48;;;;;;;1.00;1.00;;;8.30;99.90;;;;;;5092418;28;20428;-75
2023/04/22 04:09:13;;;;;;;25.13;3.38;;;8.40;99.90;;;;;;5093250;28;20036;-75
2023/04/22 04:11:39;;;;;;;54.83;6.03;;;8.30;99.90;;;;;;5092325;28;20078;-75
2023/04/22 04:14:05;;;;;;;81.45;7.80;;;8.20;99.90;;;;;;5093538;28;20460;-75
2023/04/22 04:16:30;;;;;;;24.20;3.28;;;8.20;99.90;;;;;;5091980;28;20036;-75
2023/04/22 04:18:56;;;;;;;12.52;1.67;;;8.30;99.90;;;;;;5092299;28;20390;-75
2023/04/22 04:21:22;;;;;;;26.05;2.53;;;8.20;99.90;;;;;;5093126;28;20090;-75
2023/04/22 04:23:47;;;;;;;16.92;2.30;;;8.10;99.90;;;;;;5093134;28;20052;-75
2023/04/22 04:26:13;;;;;;;0.80;0.60;;;8.20;99.90;;;;;;5092012;28;20040;-75
2023/04/22 04:28:40;;;;;;;8.07;1.00;;;8.20;99.90;;;;;;5093471;28;20051;-75
2023/04/22 04:31:06;;;;;;;1.48;0.90;;;8.10;99.90;;;;;;5093868;28;20487;-75
2023/04/22 04:33:32;;;;;;;0.50;0.50;;;8.00;99.90;;;;;;5093324;28;20048;-75
2023/04/22 04:35:58;;;;;;;0.90;0.90;;;8.10;99.90;;;;;;5091827;28;20041;-75
2023/04/22 04:38:25;;;;;;;0.80;0.80;;;8.10;99.90;;;;;;5091632;28;20054;-74
2023/04/22 04:40:51;;;;;;;1.05;1.05;;;8.20;99.90;;;;;;5091818;28;20040;-75
2023/04/22 04:43:17;;;;;;;1.10;1.10;;;8.30;99.90;;;;;;5093045;28;20051;-75
2023/04/22 04:45:45;;;;;;;1.00;1.00;;;8.40;99.90;;;;;;5091673;28;20048;-75
2023/04/22 04:48:13;;;;;;;0.70;0.70;;;8.40;99.90;;;;;;5091672;28;20076;-76
2023/04/22 04:50:42;;;;;;;1.08;1.08;;;8.40;99.90;;;;;;5091651;28;20048;-75
2023/04/22 04:53:09;;;;;;;1.13;1.13;;;8.40;99.90;;;;;;5092881;28;20040;-75
2023/04/22 04:55:35;;;;;;;0.98;0.98;;;8.60;99.90;;;;;;5091871;28;20051;-75
2023/04/22 04:58:01;;;;;;;0.90;0.90;;;8.70;99.90;;;;;;5091788;28;20044;-76
2023/04/22 05:00:26;;;;;;;0.90;0.90;;;8.70;99.90;;;;;;5095398;28;20047;-76
2023/04/22 05:02:52;;;;;;;1.00;1.00;;;8.80;99.90;;;;;;5095615;28;20048;-76
2023/04/22 05:05:18;;;;;;;1.10;1.10;;;8.90;99.90;;;;;;5095292;28;20043;-76
2023/04/22 05:07:43;;;;;;;1.40;1.30;;;8.90;99.90;;;;;;5096763;28;20117;-76
2023/04/22 05:10:09;;;;;;;1.10;1.10;;;9.00;99.90;;;;;;5095222;28;20377;-75
2023/04/22 05:12:35;;;;;;;1.15;1.10;;;9.20;99.90;;;;;;5096646;28;20050;-75
2023/04/22 05:15:01;;;;;;;1.30;1.20;;;9.40;99.90;;;;;;5096390;28;20040;-76
2023/04/22 05:17:27;;;;;;;1.10;1.10;;;9.50;99.90;;;;;;5096561;28;20072;-76
2023/04/22 05:19:52;;;;;;;0.90;0.90;;;9.60;99.90;;;;;;5096415;28;20075;-75
2023/04/22 05:22:18;;;;;;;1.17;1.17;;;9.70;99.90;;;;;;5096124;28;20043;-75
2023/04/22 05:24:44;;;;;;;1.30;1.20;;;9.80;99.90;;;;;;5096460;28;20118;-75
2023/04/22 05:27:09;;;;;;;0.90;0.90;;;9.90;99.90;;;;;;5094801;28;20047;-75
2023/04/22 05:29:35;;;;;;;1.20;1.10;;;10.00;99.90;;;;;;5096020;28;20040;-75
2023/04/22 05:32:01;;;;;;;0.93;0.93;;;10.10;99.90;;;;;;5128830;27;20426;-75
2023/04/22 05:34:26;;;;;;;1.02;1.02;;;10.10;99.90;;;;;;5094647;28;20047;-75
2023/04/22 05:36:52;;;;;;;1.10;1.10;;;10.20;99.90;;;;;;5096175;28;20036;-75
2023/04/22 05:39:18;;;;;;;0.98;0.98;;;10.20;99.90;;;;;;5094896;28;20056;-75
2023/04/22 05:41:44;;;;;;;1.15;1.10;;;10.30;99.90;;;;;;5096672;28;20097;-75
2023/04/22 05:44:10;;;;;;;1.08;1.08;;;10.30;99.90;;;;;;5094479;28;20458;-75
2023/04/22 05:46:35;;;;;;;1.10;1.10;;;10.40;99.90;;;;;;5096041;28;20028;-75
2023/04/22 05:49:01;;;;;;;0.93;0.93;;;10.40;99.90;;;;;;5094418;28;20479;-75
2023/04/22 05:51:27;;;;;;;1.10;1.10;;;10.50;99.90;;;;;;5095956;28;20032;-75
2023/04/22 05:53:52;;;;;;;1.02;1.02;;;10.50;99.90;;;;;;5095887;28;20090;-75
2023/04/22 05:56:20;;;;;;;1.00;1.00;;;10.60;99.90;;;;;;5077732;28;20094;-75
2023/04/22 05:58:45;;;;;;;1.00;1.00;;;10.70;99.90;;;;;;5094258;28;20040;-75
2023/04/22 06:01:11;;;;;;;1.38;1.27;;;10.70;99.90;;;;;;5094212;28;20115;-76
2023/04/22 06:03:37;;;;;;;1.23;1.20;;;10.80;99.90;;;;;;5094222;28;20040;-76
2023/04/22 06:06:03;;;;;;;1.15;1.10;;;10.80;99.90;;;;;;5095586;28;20051;-75
2023/04/22 06:08:30;;;;;;;1.13;1.10;;;10.80;99.90;;;;;;5077170;28;20040;-75
2023/04/22 06:10:55;;;;;;;0.95;0.95;;;10.90;99.90;;;;;;5094863;28;20093;-75
2023/04/22 06:13:21;;;;;;;0.88;0.88;;;10.90;99.90;;;;;;5095222;28;20040;-75
2023/04/22 06:15:49;;;;;;;1.00;1.00;;;10.90;99.90;;;;;;5095381;28;20048;-76
2023/04/22 06:18:15;;;;;;;1.10;1.10;;;11.00;99.90;;;;;;5095407;28;20040;-75
2023/04/22 06:20:41;;;;;;;1.15;1.00;;;11.00;99.90;;;;;;5094909;28;20400;-75
2023/04/22 06:23:06;;;;;;;0.95;0.95;;;11.00;99.90;;;;;;5127937;27;20135;-76
2023/04/22 06:25:32;;;;;;;1.10;1.10;;;11.10;99.90;;;;;;5093700;28;20111;-75
2023/04/22 06:27:58;;;;;;;1.08;1.08;;;11.10;99.90;;;;;;5093592;28;20051;-75
2023/04/22 06:30:24;;;;;;;1.10;1.10;;;11.20;99.90;;;;;;5095130;28;20048;-75
2023/04/22 06:32:51;;;;;;;1.10;1.10;;;11.20;99.90;;;;;;5093984;28;20375;-76
2023/04/22 06:35:16;;;;;;;1.00;1.00;;;11.20;99.90;;;;;;5093518;28;20416;-75
2023/04/22 06:37:42;;;;;;;1.27;1.17;;;11.20;99.90;;;;;;5093788;28;20040;-75
2023/04/22 06:40:08;;;;;;;1.10;1.10;;;11.20;99.90;;;;;;5076473;28;20449;-75
2023/04/22 06:42:34;;;;;;;1.10;1.10;;;11.30;99.90;;;;;;5094935;28;20040;-76
2023/04/22 06:45:00;;;;;;;1.00;1.00;;;11.30;99.90;;;;;;5093702;28;20032;-76
2023/04/22 06:47:25;;;;;;;1.08;1.00;;;11.20;99.90;;;;;;5094823;28;20036;-75
2023/04/22 06:49:51;;;;;;;0.90;0.90;;;11.30;99.90;;;;;;5127359;27;20043;-76
2023/04/22 06:52:17;;;;;;;1.10;1.10;;;11.30;99.90;;;;;;5077409;28;20460;-76
2023/04/22 06:54:43;;;;;;;1.00;1.00;;;11.40;99.90;;;;;;5093164;28;20055;-76
2023/04/22 06:57:08;;;;;;;1.08;1.08;;;11.50;99.90;;;;;;5093469;28;20039;-75
2023/04/22 06:59:34;;;;;;;1.10;1.10;;;11.50;99.90;;;;;;5094617;28;20050;-76
2023/04/22 07:01:59;;;;;;;1.10;1.10;;;11.40;99.90;;;;;;5093264;28;20480;-76
2023/04/22 07:04:26;;;;;;;1.00;1.00;;;11.50;99.90;;;;;;5093348;28;20444;-75
2023/04/22 07:06:52;;;;;;;1.00;1.00;;;11.50;99.90;;;;;;5093333;28;20036;-76
2023/04/22 07:09:17;;;;;;;1.40;1.30;;;11.60;99.90;;;;;;5092938;28;20040;-76
2023/04/22 07:11:43;;;;;;;1.17;1.10;;;11.60;99.90;;;;;;5092933;28;20043;-76
2023/04/22 07:14:09;;;;;;;1.50;1.20;;;11.70;99.90;;;;;;5092873;28;20123;-76
2023/04/22 07:16:34;;;;;;;1.65;1.30;;;11.80;99.90;;;;;;5093985;28;20097;-76
2023/04/22 07:19:00;;;;;;;1.58;1.35;;;11.80;99.90;;;;;;5094047;28;20047;-75
2023/04/22 07:21:26;;;;;;;1.02;1.02;;;11.90;99.90;;;;;;5093688;28;20053;-76
2023/04/22 07:23:51;;;;;;;1.08;1.05;;;12.00;99.90;;;;;;5093765;28;20373;-76
2023/04/22 07:26:17;;;;;;;1.45;1.10;;;12.00;99.90;;;;;;5093864;28;20352;-76
2023/04/22 07:28:43;;;;;;;1.30;1.20;;;12.10;99.90;;;;;;5093749;28;20047;-76
2023/04/22 07:31:09;;;;;;;1.13;1.13;;;12.20;99.90;;;;;;5094095;28;20036;-76
2023/04/22 07:33:35;;;;;;;1.13;1.13;;;12.30;99.90;;;;;;5092867;28;20040;-76
2023/04/22 07:36:01;;;;;;;1.10;1.00;;;12.30;99.90;;;;;;5092483;28;20036;-76
2023/04/22 07:38:26;;;;;;;1.10;1.10;;;12.40;99.90;;;;;;5092581;28;20384;-76
2023/04/22 07:40:52;;;;;;;1.08;1.08;;;12.50;99.90;;;;;;5092425;28;20048;-76
2023/04/22 07:43:17;;;;;;;1.02;1.02;;;12.50;99.90;;;;;;5093541;28;20085;-75
2023/04/22 07:45:43;;;;;;;1.05;1.05;;;12.70;99.90;;;;;;5093937;28;20047;-76
2023/04/22 07:48:09;;;;;;;1.00;1.00;;;12.70;99.90;;;;;;5075507;28;20028;-76
2023/04/22 07:50:35;;;;;;;0.98;0.98;;;12.70;99.90;;;;;;5075473;28;20040;-76
2023/04/22 07:53:00;;;;;;;1.08;1.08;;;12.80;99.90;;;;;;5092323;28;20143;-75
2023/04/22 07:55:26;;;;;;;1.10;1.10;;;12.90;99.90;;;;;;5092244;28;20474;-76
2023/04/22 07:57:51;;;;;;;1.05;1.05;;;13.00;99.90;;;;;;5093789;28;20388;-77
2023/04/22 08:00:17;;;;;;;1.27;1.20;;;13.00;99.90;;;;;;5092115;28;20040;-76
2023/04/22 08:02:43;;;;;;;1.05;1.05;;;13.10;99.90;;;;;;5075612;28;20046;-76
2023/04/22 08:05:09;;;;;;;1.00;1.00;;;13.20;99.90;;;;;;5092127;28;20044;-76
2023/04/22 08:07:34;;;;;;;1.00;1.00;;;13.30;99.90;;;;;;5075342;28;20036;-76
2023/04/22 08:10:00;;;;;;;0.95;0.95;;;13.30;99.90;;;;;;5126121;28;20102;-76
2023/04/22 08:12:26;;;;;;;1.00;1.00;;;13.50;99.90;;;;;;5091958;28;20407;-76
2023/04/22 08:14:51;;;;;;;0.90;0.90;;;13.50;99.90;;;;;;5093525;28;20082;-76
2023/04/22 08:17:20;;;;;;;1.30;1.20;;;13.50;99.90;;;;;;5091992;28;20044;-76
2023/04/22 08:19:47;;;;;;;1.00;1.00;;;13.70;99.90;;;;;;5091921;28;20515;-76
2023/04/22 08:22:14;;;;;;;0.82;0.80;;;13.80;99.90;;;;;;5092389;28;20051;-76
2023/04/22 08:24:39;;;;;;;1.00;1.00;;;13.90;99.90;;;;;;5075084;28;20046;-76
2023/04/22 08:27:05;;;;;;;0.90;0.90;;;14.00;99.90;;;;;;5075379;28;20420;-76
2023/04/22 08:29:31;;;;;;;0.90;0.90;;;14.00;99.90;;;;;;5093478;28;20488;-76
2023/04/22 08:31:56;;;;;;;1.00;1.00;;;14.10;99.90;;;;;;5091843;28;20047;-76
2023/04/22 08:34:23;;;;;;;0.90;0.90;;;14.10;99.90;;;;;;5128412;27;20044;-76
2023/04/22 08:36:49;;;;;;;0.90;0.90;;;14.10;99.90;;;;;;5097420;28;20153;-76
2023/04/22 08:39:16;;;;;;;1.10;0.82;;;14.30;99.90;;;;;;5095721;28;20088;-75
2023/04/22 08:41:43;;;;;;;0.90;0.90;;;14.30;99.90;;;;;;5095984;28;20044;-76
2023/04/22 08:44:10;;;;;;;0.90;0.90;;;14.30;99.90;;;;;;5078717;28;20495;-76
2023/04/22 08:46:36;;;;;;;1.00;1.00;;;14.30;99.90;;;;;;5097256;28;20032;-76
2023/04/22 08:49:03;;;;;;;0.90;0.90;;;14.30;99.90;;;;;;5095927;28;20453;-76
2023/04/22 08:51:32;;;;;;;0.90;0.90;;;14.40;99.90;;;;;;5096875;28;20052;-76
2023/04/22 08:53:58;;;;;;;1.00;1.00;;;14.50;99.90;;;;;;5095822;28;20440;-76
2023/04/22 08:56:24;;;;;;;0.90;0.90;;;14.50;99.90;;;;;;5078549;28;20083;-76
2023/04/22 08:58:51;;;;;;;0.90;0.90;;;14.60;99.90;;;;;;5095482;28;20075;-76
2023/04/22 09:01:17;;;;;;;0.88;0.88;;;14.70;99.90;;;;;;5095646;28;20036;-76
2023/04/22 09:03:44;;;;;;;0.98;0.90;;;14.70;99.90;;;;;;5096876;28;20028;-76
2023/04/22 09:06:10;;;;;;;0.80;0.80;;;14.80;99.90;;;;;;5096559;28;20554;-76
2023/04/22 09:08:37;;;;;;;1.05;0.80;;;14.80;99.90;;;;;;5096804;28;20047;-76
2023/04/22 09:11:03;;;;;;;0.80;0.80;;;14.90;99.90;;;;;;5095351;28;20044;-76
2023/04/22 09:13:29;;;;;;;0.80;0.80;;;15.00;99.90;;;;;;5095360;28;20051;-76
2023/04/22 09:15:55;;;;;;;0.80;0.80;;;15.10;99.90;;;;;;5095234;28;20047;-77
2023/04/22 09:18:20;;;;;;;0.77;0.77;;;15.20;99.90;;;;;;5096622;28;20040;-76
2023/04/22 09:20:47;;;;;;;0.95;0.80;;;15.30;99.90;;;;;;5095090;28;20071;-77
2023/04/22 09:23:13;;;;;;;0.80;0.80;;;15.40;99.90;;;;;;5096628;28;20040;-77
2023/04/22 09:25:39;;;;;;;0.80;0.80;;;15.50;99.90;;;;;;5094922;28;20040;-76
2023/04/22 09:28:09;;;;;;;0.85;0.85;;;15.60;99.90;;;;;;5096043;28;20387;-76
2023/04/22 09:30:36;;;;;;;0.85;0.85;;;15.70;99.90;;;;;;5094806;28;20047;-76
2023/04/22 09:33:04;;;;;;;0.82;0.82;;;15.70;99.90;;;;;;5096031;28;20050;-76
2023/04/22 09:35:32;;;;;;;0.80;0.80;;;15.70;99.90;;;;;;5094787;28;20162;-76
2023/04/22 09:38:00;;;;;;;1.20;0.70;;;15.90;99.90;;;;;;5096302;28;20118;-76
2023/04/22 09:40:26;;;;;;;0.70;0.70;;;16.00;99.90;;;;;;5094397;28;20126;-76
2023/04/22 09:42:54;;;;;;;0.85;0.60;;;16.20;99.90;;;;;;5094627;28;20044;-76
2023/04/22 09:45:52;;;;;;;0.70;0.70;;;16.30;99.90;;;;;;5093488;28;20119;-76
2023/04/22 09:48:18;;;;;;;0.70;0.70;;;16.50;99.90;;;;;;5072033;28;20105;-76
2023/04/22 09:50:46;;;;;;;0.70;0.70;;;16.70;99.90;;;;;;5096023;28;20098;-76
2023/04/22 09:53:15;;;;;;;1.25;0.70;;;16.90;99.90;;;;;;5077503;28;20044;-76
2023/04/22 09:56:03;;;;;;;0.60;0.60;;;17.00;99.90;;;;;;5094695;28;20399;-77
2023/04/22 09:58:29;;;;;;;0.60;0.60;;;17.20;99.90;;;;;;5094633;28;20123;-76
2023/04/22 10:00:56;;;;;;;0.70;0.70;;;17.40;99.90;;;;;;5095731;28;20119;-76
2023/04/22 10:03:22;;;;;;;0.70;0.70;;;17.50;99.90;;;;;;5128602;27;20432;-76
2023/04/22 10:05:48;;;;;;;0.57;0.57;;;17.50;99.90;;;;;;5094424;28;20080;-76
2023/04/22 10:08:15;;;;;;;0.73;0.73;;;17.60;99.90;;;;;;5095626;28;20079;-76
2023/04/22 10:10:41;;;;;;;0.60;0.60;;;17.70;99.90;;;;;;5094247;28;20480;-76
2023/04/22 10:13:07;;;;;;;0.60;0.60;;;17.70;99.90;;;;;;5095558;28;20046;-76
2023/04/22 10:15:43;;;;;;;0.60;0.60;;;17.80;99.90;;;;;;5095161;28;20484;-76
2023/04/22 10:18:11;;;;;;;0.70;0.70;;;17.90;99.90;;;;;;5093861;28;20089;-76
2023/04/22 10:20:40;;;;;;;0.63;0.63;;;18.00;99.90;;;;;;5093750;28;20513;-76
2023/04/22 10:23:18;;;;;;;0.50;0.50;;;18.10;99.90;;;;;;5094119;28;20032;-76
2023/04/22 10:25:50;;;;;;;0.60;0.60;;;18.10;99.90;;;;;;5094012;28;20507;-77
2023/04/22 10:28:16;;;;;;;0.95;0.60;;;18.20;99.90;;;;;;5093726;28;20036;-76
2023/04/22 10:30:42;;;;;;;0.55;0.55;;;18.20;99.90;;;;;;5094015;28;20047;-76
2023/04/22 10:33:20;;;;;;;0.60;0.60;;;18.20;99.90;;;;;;5093656;28;20032;-76
2023/04/22 10:36:04;;;;;;;0.50;0.50;;;18.20;99.90;;;;;;5077469;28;20040;-76
2023/04/22 10:38:42;;;;;;;0.50;0.50;;;18.30;99.90;;;;;;5094582;28;20504;-76
2023/04/22 10:41:15;;;;;;;0.47;0.47;;;18.30;99.90;;;;;;5093488;28;20048;-77
2023/04/22 10:43:46;;;;;;;0.50;0.50;;;18.40;99.90;;;;;;5093428;28;20494;-76
2023/04/22 10:46:33;;;;;;;0.60;0.60;;;18.50;99.90;;;;;;5093894;28;20118;-77
2023/04/22 10:49:10;;;;;;;0.55;0.52;;;18.50;99.90;;;;;;5094844;28;20036;-76
2023/04/22 10:51:46;;;;;;;0.50;0.50;;;18.60;99.90;;;;;;5094747;28;20044;-76
2023/04/22 10:54:27;;;;;;;0.63;0.63;;;18.60;99.90;;;;;;5093205;28;20066;-76
2023/04/22 10:57:10;;;;;;;0.50;0.50;;;18.60;99.90;;;;;;5075997;28;20039;-76
2023/04/22 10:59:45;;;;;;;0.60;0.60;;;18.70;99.90;;;;;;5094264;28;20036;-77
2023/04/22 11:02:13;;;;;;;0.57;0.57;;;18.80;99.90;;;;;;5094855;28;20044;-76
2023/04/22 11:04:38;;;;;;;0.40;0.40;;;18.80;99.90;;;;;;5093568;28;20039;-76
2023/04/22 11:07:21;;;;;;;0.60;0.60;;;18.90;99.90;;;;;;5076068;28;20114;-76
2023/04/22 11:09:57;;;;;;;0.40;0.40;;;18.90;99.90;;;;;;5094476;28;20083;-76
2023/04/22 11:12:34;;;;;;;0.50;0.50;;;19.10;99.90;;;;;;5094480;28;20043;-76
2023/04/22 11:15:15;;;;;;;0.57;0.50;;;19.20;99.90;;;;;;5075985;28;20036;-77
2023/04/22 11:17:43;;;;;;;0.50;0.50;;;19.30;99.90;;;;;;5094859;28;20376;-76
2023/04/22 11:20:11;;;;;;;0.50;0.50;;;19.20;99.90;;;;;;5094159;28;20082;-76
2023/04/22 11:22:46;;;;;;;0.60;0.60;;;19.20;99.90;;;;;;5092791;28;20540;-76
2023/04/22 11:25:12;;;;;;;0.52;0.52;;;19.30;99.90;;;;;;5092748;28;20054;-77
2023/04/22 11:27:39;;;;;;;0.70;0.70;;;19.30;99.90;;;;;;5092746;28;20036;-77
2023/04/22 11:30:06;;;;;;;0.60;0.60;;;19.40;99.90;;;;;;5094598;28;20458;-77
2023/04/22 11:32:36;;;;;;;0.60;0.60;;;19.50;99.90;;;;;;5094137;28;20072;-77
2023/04/22 11:35:06;;;;;;;;;;;19.60;99.90;;;;;;5095079;28;20383;-77
2023/04/22 11:37:39;;;;;;;0.60;0.60;;;19.60;99.90;;;;;;5094071;28;19916;-77
2023/04/22 11:40:26;;;;;;;0.50;0.50;;;19.70;99.90;;;;;;5092329;28;20155;-76
2023/04/22 11:42:53;;;;;;;0.50;0.50;;;19.90;99.90;;;;;;5092091;28;20051;-76
2023/04/22 11:45:19;;;;;;;0.50;0.50;;;20.00;99.90;;;;;;5094027;28;20032;-77
2023/04/22 11:47:45;;;;;;;0.40;0.40;;;20.20;99.90;;;;;;5093940;28;20043;-77
2023/04/22 11:50:12;;;;;;;0.60;0.60;;;20.30;99.90;;;;;;5092432;28;20491;-77
2023/04/22 11:52:43;;;;;;;0.50;0.50;;;20.30;99.90;;;;;;5092623;28;20076;-76
2023/04/22 11:55:13;;;;;;;0.40;0.40;;;20.40;99.90;;;;;;5093611;28;20155;-76
2023/04/22 11:57:39;;;;;;;0.60;0.60;;;20.40;99.90;;;;;;5075483;28;20047;-77
2023/04/22 12:00:12;;;;;;;0.50;0.50;;;20.50;99.50;;;;;;5092273;28;20118;-77
2023/04/22 12:02:37;;;;;;;0.60;0.60;;;20.60;99.80;;;;;;5093884;28;20068;-77
2023/04/22 12:05:03;;;;;;;0.60;0.60;;;20.80;98.90;;;;;;5092250;28;20054;-77
2023/04/22 12:07:31;;;;;;;0.77;0.70;;;20.70;99.70;;;;;;5126787;28;20032;-77
2023/04/22 12:09:58;;;;;;;0.65;0.65;;;20.80;98.80;;;;;;5100039;28;20036;-77
2023/04/22 12:12:25;;;;;;;0.50;0.50;;;20.90;98.10;;;;;;5098887;28;20127;-77
2023/04/22 12:14:51;;;;;;;0.75;0.60;;;20.80;98.30;;;;;;5082321;28;20490;-77
2023/04/22 12:17:22;;;;;;;0.55;0.55;;;20.80;98.40;;;;;;5100360;28;20535;-77
2023/04/22 12:19:52;;;;;;;0.60;0.60;;;20.80;97.30;;;;;;5100329;28;20040;-78
2023/04/22 12:22:28;;;;;;;0.60;0.60;;;20.60;97.50;;;;;;5099044;28;20036;-77
2023/04/22 12:24:57;;;;;;;0.60;0.60;;;20.60;97.30;;;;;;5081844;28;20133;-78
2023/04/22 12:27:22;;;;;;;0.57;0.57;;;20.50;97.90;;;;;;5099030;28;20369;-78
2023/04/22 12:29:54;;;;;;;0.50;0.50;;;20.70;97.30;;;;;;5098862;28;20503;-77
2023/04/22 12:32:20;;;;;;;0.50;0.50;;;20.80;97.00;;;;;;5100135;28;20047;-77
2023/04/22 12:34:46;;;;;;;0.60;0.60;;;20.90;96.70;;;;;;5098611;28;20035;-77
2023/04/22 12:37:12;;;;;;;0.60;0.60;;;20.90;97.80;;;;;;5100114;28;20043;-77
2023/04/22 12:39:38;;;;;;;0.60;0.60;;;21.10;97.70;;;;;;5081799;28;20404;-77
2023/04/22 12:42:04;;;;;;;0.52;0.52;;;21.20;98.00;;;;;;5100038;28;20518;-77
2023/04/22 12:44:31;;;;;;;0.82;0.50;;;21.30;97.60;;;;;;5098766;28;20040;-77
2023/04/22 12:46:57;;;;;;;0.50;0.50;;;21.30;97.60;;;;;;5098822;28;20123;-77